createdAt,value
2023-04-18T00:00:45.000Z,5.9830400782013875
2023-04-18T00:01:48.000Z,6.041397849462385
2023-04-18T00:02:50.000Z,6.060850439882717
2023-04-18T00:03:53.000Z,6.00249266862172
2023-04-18T00:04:55.000Z,6.070576735092883
2023-04-18T00:05:58.000Z,6.070576735092883
2023-04-18T00:07:01.000Z,6.070576735092883
2023-04-18T00:08:03.000Z,6.060850439882717
2023-04-18T00:09:06.000Z,6.090029325513216
2023-04-18T00:10:09.000Z,6.109481915933548
2023-04-18T00:11:11.000Z,6.128934506353881
2023-04-18T00:12:14.000Z,6.109481915933548
2023-04-18T00:13:17.000Z,6.041397849462385
2023-04-18T00:14:19.000Z,6.051124144672551
2023-04-18T00:15:22.000Z,6.041397849462385
2023-04-18T00:16:25.000Z,6.051124144672551
2023-04-18T00:17:27.000Z,6.08030303030305
2023-04-18T00:18:30.000Z,6.128934506353881
2023-04-18T00:19:32.000Z,6.158113391984379
2023-04-18T00:20:35.000Z,5.963587487781055
2023-04-18T00:21:38.000Z,6.099755620723382
2023-04-18T00:22:40.000Z,6.128934506353881
2023-04-18T00:23:43.000Z,6.109481915933548
2023-04-18T00:24:45.000Z,6.109481915933548
2023-04-18T00:25:48.000Z,6.099755620723382
2023-04-18T00:26:50.000Z,6.099755620723382
2023-04-18T00:27:53.000Z,6.1192082111437145
2023-04-18T00:28:56.000Z,6.1192082111437145
2023-04-18T00:29:58.000Z,6.099755620723382
2023-04-18T00:31:01.000Z,6.090029325513216
2023-04-18T00:32:03.000Z,5.973313782991221
2023-04-18T00:33:06.000Z,6.138660801564047
2023-04-18T00:34:08.000Z,6.08030303030305
2023-04-18T00:35:11.000Z,6.041397849462385
2023-04-18T00:36:14.000Z,6.051124144672551
2023-04-18T00:37:16.000Z,6.090029325513216
2023-04-18T00:38:19.000Z,6.148387096774213
2023-04-18T00:39:21.000Z,6.158113391984379
2023-04-18T00:40:24.000Z,6.158113391984379
2023-04-18T00:41:27.000Z,6.060850439882717
2023-04-18T00:42:30.000Z,6.070576735092883
2023-04-18T00:43:32.000Z,6.070576735092883
2023-04-18T00:44:35.000Z,6.099755620723382
2023-04-18T00:45:38.000Z,6.031671554252219
2023-04-18T00:46:41.000Z,6.051124144672551
2023-04-18T00:47:43.000Z,6.051124144672551
2023-04-18T00:48:46.000Z,6.128934506353881
2023-04-18T00:49:48.000Z,6.138660801564047
2023-04-18T00:50:51.000Z,6.1192082111437145
2023-04-18T00:51:53.000Z,6.158113391984379
2023-04-18T00:52:56.000Z,6.1192082111437145
2023-04-18T00:53:59.000Z,6.1192082111437145
2023-04-18T00:55:01.000Z,6.021945259042052
2023-04-18T00:56:04.000Z,6.1192082111437145
2023-04-18T00:57:06.000Z,6.1192082111437145
2023-04-18T00:58:09.000Z,6.177565982404712
2023-04-18T00:59:11.000Z,6.177565982404712
2023-04-18T01:00:14.000Z,6.216471163245377
2023-04-18T01:01:17.000Z,6.08030303030305
2023-04-18T01:02:19.000Z,6.08030303030305
2023-04-18T01:03:22.000Z,6.090029325513216
2023-04-18T01:04:24.000Z,6.090029325513216
2023-04-18T01:05:27.000Z,6.08030303030305
2023-04-18T01:06:30.000Z,5.973313782991221
2023-04-18T01:07:32.000Z,6.128934506353881
2023-04-18T01:08:35.000Z,6.1192082111437145
2023-04-18T01:09:38.000Z,6.158113391984379
2023-04-18T01:10:40.000Z,6.138660801564047
2023-04-18T01:11:43.000Z,6.138660801564047
2023-04-18T01:12:45.000Z,6.148387096774213
2023-04-18T01:13:48.000Z,6.148387096774213
2023-04-18T01:14:51.000Z,6.158113391984379
2023-04-18T01:15:53.000Z,6.167839687194546
2023-04-18T01:16:56.000Z,6.158113391984379
2023-04-18T01:17:59.000Z,6.041397849462385
2023-04-18T01:19:01.000Z,6.158113391984379
2023-04-18T01:20:04.000Z,6.138660801564047
2023-04-18T01:21:07.000Z,6.138660801564047
2023-04-18T01:22:09.000Z,6.216471163245377
2023-04-18T01:23:12.000Z,6.00249266862172
2023-04-18T01:24:15.000Z,6.197018572825044
2023-04-18T01:25:17.000Z,6.187292277614878
2023-04-18T01:26:20.000Z,6.090029325513216
2023-04-18T01:27:22.000Z,6.109481915933548
2023-04-18T01:28:25.000Z,6.138660801564047
2023-04-18T01:29:28.000Z,6.187292277614878
2023-04-18T01:30:32.000Z,6.245650048875875
2023-04-18T01:31:34.000Z,6.2553763440860415
2023-04-18T01:32:37.000Z,6.235923753665709
2023-04-18T01:33:39.000Z,6.148387096774213
2023-04-18T01:34:42.000Z,6.158113391984379
2023-04-18T01:35:45.000Z,6.070576735092883
2023-04-18T01:36:47.000Z,6.070576735092883
2023-04-18T01:37:50.000Z,6.099755620723382
2023-04-18T01:38:53.000Z,6.08030303030305
2023-04-18T01:39:55.000Z,6.158113391984379
2023-04-18T01:40:58.000Z,6.08030303030305
2023-04-18T01:42:00.000Z,6.148387096774213
2023-04-18T01:43:03.000Z,6.158113391984379
2023-04-18T01:44:06.000Z,6.158113391984379
2023-04-18T01:45:08.000Z,6.158113391984379
2023-04-18T01:46:11.000Z,6.060850439882717
2023-04-18T01:47:13.000Z,6.187292277614878
2023-04-18T01:48:16.000Z,6.187292277614878
2023-04-18T01:49:19.000Z,6.197018572825044
2023-04-18T01:50:21.000Z,6.187292277614878
2023-04-18T01:51:24.000Z,6.187292277614878
2023-04-18T01:52:27.000Z,6.187292277614878
2023-04-18T01:53:29.000Z,6.20674486803521
2023-04-18T01:54:32.000Z,6.187292277614878
2023-04-18T01:55:35.000Z,6.235923753665709
2023-04-18T01:56:37.000Z,6.226197458455543
2023-04-18T01:57:40.000Z,6.167839687194546
2023-04-18T01:58:43.000Z,6.060850439882717
2023-04-18T01:59:45.000Z,6.051124144672551
2023-04-18T02:00:48.000Z,6.08030303030305
2023-04-18T02:01:51.000Z,6.041397849462385
2023-04-18T02:02:53.000Z,6.051124144672551
2023-04-18T02:03:56.000Z,6.138660801564047
2023-04-18T02:05:00.000Z,6.148387096774213
2023-04-18T02:06:03.000Z,6.148387096774213
2023-04-18T02:07:05.000Z,6.138660801564047
2023-04-18T02:08:08.000Z,6.128934506353881
2023-04-18T02:09:11.000Z,6.031671554252219
2023-04-18T02:10:13.000Z,6.226197458455543
2023-04-18T02:11:16.000Z,6.197018572825044
2023-04-18T02:12:18.000Z,6.197018572825044
2023-04-18T02:13:21.000Z,6.090029325513216
2023-04-18T02:14:24.000Z,6.099755620723382
2023-04-18T02:15:26.000Z,6.235923753665709
2023-04-18T02:16:29.000Z,6.177565982404712
2023-04-18T02:17:32.000Z,6.216471163245377
2023-04-18T02:18:34.000Z,6.216471163245377
2023-04-18T02:19:37.000Z,6.245650048875875
2023-04-18T02:20:40.000Z,6.2553763440860415
2023-04-18T02:21:42.000Z,6.177565982404712
2023-04-18T02:22:45.000Z,6.167839687194546
2023-04-18T02:23:48.000Z,6.187292277614878
2023-04-18T02:24:50.000Z,6.167839687194546
2023-04-18T02:25:53.000Z,6.041397849462385
2023-04-18T02:26:56.000Z,6.177565982404712
2023-04-18T02:27:58.000Z,6.177565982404712
2023-04-18T02:29:01.000Z,6.060850439882717
2023-04-18T02:30:04.000Z,6.051124144672551
2023-04-18T02:31:06.000Z,6.128934506353881
2023-04-18T02:32:09.000Z,6.158113391984379
2023-04-18T02:33:11.000Z,6.226197458455543
2023-04-18T02:34:14.000Z,6.226197458455543
2023-04-18T02:35:16.000Z,6.197018572825044
2023-04-18T02:36:19.000Z,6.235923753665709
2023-04-18T02:37:22.000Z,6.226197458455543
2023-04-18T02:38:24.000Z,6.216471163245377
2023-04-18T02:39:27.000Z,6.226197458455543
2023-04-18T02:40:30.000Z,6.090029325513216
2023-04-18T02:41:32.000Z,6.109481915933548
2023-04-18T02:42:35.000Z,6.226197458455543
2023-04-18T02:43:37.000Z,6.226197458455543
2023-04-18T02:44:40.000Z,6.245650048875875
2023-04-18T02:45:43.000Z,6.187292277614878
2023-04-18T02:46:45.000Z,6.216471163245377
2023-04-18T02:47:48.000Z,6.197018572825044
2023-04-18T02:48:51.000Z,6.197018572825044
2023-04-18T02:49:53.000Z,6.187292277614878
2023-04-18T02:50:56.000Z,6.08030303030305
2023-04-18T02:51:58.000Z,6.08030303030305
2023-04-18T02:53:01.000Z,6.090029325513216
2023-04-18T02:54:04.000Z,6.158113391984379
2023-04-18T02:55:07.000Z,6.060850439882717
2023-04-18T02:56:10.000Z,6.070576735092883
2023-04-18T02:57:12.000Z,6.158113391984379
2023-04-18T02:58:15.000Z,6.20674486803521
2023-04-18T02:59:17.000Z,6.08030303030305
2023-04-18T03:00:20.000Z,6.20674486803521
2023-04-18T03:01:23.000Z,6.216471163245377
2023-04-18T03:02:25.000Z,6.226197458455543
2023-04-18T03:03:28.000Z,6.235923753665709
2023-04-18T03:04:31.000Z,6.235923753665709
2023-04-18T03:05:33.000Z,6.235923753665709
2023-04-18T03:06:36.000Z,6.245650048875875
2023-04-18T03:07:38.000Z,6.226197458455543
2023-04-18T03:08:41.000Z,6.128934506353881
2023-04-18T03:09:44.000Z,6.109481915933548
2023-04-18T03:10:46.000Z,6.148387096774213
2023-04-18T03:11:49.000Z,6.177565982404712
2023-04-18T03:12:52.000Z,6.167839687194546
2023-04-18T03:13:54.000Z,6.187292277614878
2023-04-18T03:14:57.000Z,6.197018572825044
2023-04-18T03:15:59.000Z,6.167839687194546
2023-04-18T03:17:02.000Z,6.177565982404712
2023-04-18T03:18:05.000Z,6.177565982404712
2023-04-18T03:19:07.000Z,6.177565982404712
2023-04-18T03:20:10.000Z,6.158113391984379
2023-04-18T03:21:12.000Z,6.051124144672551
2023-04-18T03:22:15.000Z,6.20674486803521
2023-04-18T03:23:18.000Z,6.187292277614878
2023-04-18T03:24:20.000Z,6.20674486803521
2023-04-18T03:25:23.000Z,6.20674486803521
2023-04-18T03:26:26.000Z,6.070576735092883
2023-04-18T03:27:28.000Z,6.099755620723382
2023-04-18T03:28:31.000Z,6.1192082111437145
2023-04-18T03:29:34.000Z,6.128934506353881
2023-04-18T03:30:41.000Z,6.245650048875875
2023-04-18T03:31:44.000Z,6.265102639296208
2023-04-18T03:32:46.000Z,6.167839687194546
2023-04-18T03:33:49.000Z,6.128934506353881
2023-04-18T03:34:51.000Z,6.070576735092883
2023-04-18T03:35:54.000Z,6.08030303030305
2023-04-18T03:36:57.000Z,6.090029325513216
2023-04-18T03:37:59.000Z,6.138660801564047
2023-04-18T03:39:02.000Z,6.177565982404712
2023-04-18T03:40:05.000Z,6.187292277614878
2023-04-18T03:41:07.000Z,6.177565982404712
2023-04-18T03:42:10.000Z,6.158113391984379
2023-04-18T03:43:13.000Z,6.148387096774213
2023-04-18T03:44:15.000Z,6.060850439882717
2023-04-18T03:45:18.000Z,6.216471163245377
2023-04-18T03:46:21.000Z,6.187292277614878
2023-04-18T03:47:23.000Z,6.090029325513216
2023-04-18T03:48:26.000Z,6.109481915933548
2023-04-18T03:49:28.000Z,6.177565982404712
2023-04-18T03:50:31.000Z,6.167839687194546
2023-04-18T03:51:34.000Z,6.099755620723382
2023-04-18T03:52:37.000Z,6.235923753665709
2023-04-18T03:53:40.000Z,6.216471163245377
2023-04-18T03:54:42.000Z,6.226197458455543
2023-04-18T03:55:45.000Z,6.245650048875875
2023-04-18T03:56:47.000Z,6.167839687194546
2023-04-18T03:57:50.000Z,6.177565982404712
2023-04-18T03:58:53.000Z,6.187292277614878
2023-04-18T03:59:55.000Z,6.177565982404712
2023-04-18T04:00:58.000Z,6.021945259042052
2023-04-18T04:02:01.000Z,6.051124144672551
2023-04-18T04:03:03.000Z,6.1192082111437145
2023-04-18T04:04:06.000Z,6.138660801564047
2023-04-18T04:05:08.000Z,6.138660801564047
2023-04-18T04:06:11.000Z,6.109481915933548
2023-04-18T04:07:14.000Z,6.1192082111437145
2023-04-18T04:08:16.000Z,6.177565982404712
2023-04-18T04:09:19.000Z,6.158113391984379
2023-04-18T04:10:21.000Z,6.148387096774213
2023-04-18T04:11:24.000Z,6.070576735092883
2023-04-18T04:12:27.000Z,5.963587487781055
2023-04-18T04:13:29.000Z,6.128934506353881
2023-04-18T04:14:32.000Z,6.197018572825044
2023-04-18T04:15:35.000Z,6.235923753665709
2023-04-18T04:16:37.000Z,6.20674486803521
2023-04-18T04:17:40.000Z,6.187292277614878
2023-04-18T04:18:42.000Z,6.197018572825044
2023-04-18T04:19:45.000Z,6.235923753665709
2023-04-18T04:20:48.000Z,6.158113391984379
2023-04-18T04:21:50.000Z,6.138660801564047
2023-04-18T04:22:58.000Z,6.138660801564047
2023-04-18T04:24:00.000Z,6.138660801564047
2023-04-18T04:25:03.000Z,6.1192082111437145
2023-04-18T04:26:06.000Z,6.090029325513216
2023-04-18T04:27:09.000Z,6.090029325513216
2023-04-18T04:28:11.000Z,6.060850439882717
2023-04-18T04:29:14.000Z,6.00249266862172
2023-04-18T04:30:16.000Z,6.060850439882717
2023-04-18T04:31:19.000Z,6.177565982404712
2023-04-18T04:32:21.000Z,6.167839687194546
2023-04-18T04:33:24.000Z,6.197018572825044
2023-04-18T04:34:27.000Z,6.167839687194546
2023-04-18T04:35:29.000Z,6.099755620723382
2023-04-18T04:36:32.000Z,6.216471163245377
2023-04-18T04:37:35.000Z,6.216471163245377
2023-04-18T04:38:37.000Z,6.226197458455543
2023-04-18T04:39:40.000Z,6.1192082111437145
2023-04-18T04:40:43.000Z,6.128934506353881
2023-04-18T04:41:45.000Z,6.128934506353881
2023-04-18T04:42:48.000Z,6.138660801564047
2023-04-18T04:43:50.000Z,6.128934506353881
2023-04-18T04:44:53.000Z,6.158113391984379
2023-04-18T04:45:56.000Z,6.128934506353881
2023-04-18T04:46:58.000Z,6.041397849462385
2023-04-18T04:48:01.000Z,6.167839687194546
2023-04-18T04:49:03.000Z,6.167839687194546
2023-04-18T04:50:06.000Z,6.167839687194546
2023-04-18T04:51:09.000Z,6.167839687194546
2023-04-18T04:52:11.000Z,6.158113391984379
2023-04-18T04:53:14.000Z,6.148387096774213
2023-04-18T04:54:16.000Z,6.138660801564047
2023-04-18T04:55:19.000Z,6.187292277614878
2023-04-18T04:56:22.000Z,6.197018572825044
2023-04-18T04:57:24.000Z,6.216471163245377
2023-04-18T04:58:27.000Z,6.109481915933548
2023-04-18T04:59:29.000Z,6.2553763440860415
2023-04-18T05:00:32.000Z,6.294281524926706
2023-04-18T05:01:35.000Z,6.274828934506374
2023-04-18T05:02:38.000Z,6.28455522971654
2023-04-18T05:03:40.000Z,6.226197458455543
2023-04-18T05:04:43.000Z,6.265102639296208
2023-04-18T05:05:46.000Z,6.28455522971654
2023-04-18T05:06:48.000Z,6.265102639296208
2023-04-18T05:07:51.000Z,6.177565982404712
2023-04-18T05:08:53.000Z,6.090029325513216
2023-04-18T05:09:56.000Z,5.963587487781055
2023-04-18T05:10:59.000Z,6.167839687194546
2023-04-18T05:12:01.000Z,6.20674486803521
2023-04-18T05:13:04.000Z,6.138660801564047
2023-04-18T05:14:07.000Z,6.138660801564047
2023-04-18T05:15:09.000Z,6.158113391984379
2023-04-18T05:16:12.000Z,6.158113391984379
2023-04-18T05:17:15.000Z,6.148387096774213
2023-04-18T05:18:18.000Z,6.148387096774213
2023-04-18T05:19:21.000Z,6.20674486803521
2023-04-18T05:20:23.000Z,6.20674486803521
2023-04-18T05:21:26.000Z,6.070576735092883
2023-04-18T05:22:29.000Z,6.20674486803521
2023-04-18T05:23:31.000Z,6.216471163245377
2023-04-18T05:24:34.000Z,6.20674486803521
2023-04-18T05:25:36.000Z,6.109481915933548
2023-04-18T05:26:39.000Z,6.20674486803521
2023-04-18T05:27:42.000Z,6.216471163245377
2023-04-18T05:28:45.000Z,6.216471163245377
2023-04-18T05:29:47.000Z,6.216471163245377
2023-04-18T05:30:50.000Z,6.235923753665709
2023-04-18T05:31:52.000Z,6.167839687194546
2023-04-18T05:32:55.000Z,6.060850439882717
2023-04-18T05:33:57.000Z,6.187292277614878
2023-04-18T05:35:00.000Z,6.177565982404712
2023-04-18T05:36:03.000Z,6.197018572825044
2023-04-18T05:37:06.000Z,6.158113391984379
2023-04-18T05:38:08.000Z,6.138660801564047
2023-04-18T05:39:11.000Z,6.158113391984379
2023-04-18T05:40:13.000Z,6.138660801564047
2023-04-18T05:41:16.000Z,6.060850439882717
2023-04-18T05:42:19.000Z,6.051124144672551
2023-04-18T05:43:21.000Z,6.1192082111437145
2023-04-18T05:44:24.000Z,6.090029325513216
2023-04-18T05:45:26.000Z,6.216471163245377
2023-04-18T05:46:29.000Z,6.235923753665709
2023-04-18T05:47:32.000Z,6.235923753665709
2023-04-18T05:48:34.000Z,6.2553763440860415
2023-04-18T05:49:37.000Z,6.2553763440860415
2023-04-18T05:50:40.000Z,6.294281524926706
2023-04-18T05:51:42.000Z,6.294281524926706
2023-04-18T05:52:45.000Z,6.294281524926706
2023-04-18T05:53:48.000Z,6.3040078201368726
2023-04-18T05:54:50.000Z,6.274828934506374
2023-04-18T05:55:58.000Z,6.099755620723382
2023-04-18T05:57:00.000Z,6.226197458455543
2023-04-18T05:58:03.000Z,6.235923753665709
2023-04-18T05:59:06.000Z,6.226197458455543
2023-04-18T06:00:08.000Z,6.197018572825044
2023-04-18T06:01:11.000Z,6.197018572825044
2023-04-18T06:02:14.000Z,6.187292277614878
2023-04-18T06:03:17.000Z,6.20674486803521
2023-04-18T06:04:19.000Z,6.197018572825044
2023-04-18T06:05:27.000Z,6.294281524926706
2023-04-18T06:06:30.000Z,6.265102639296208
2023-04-18T06:07:32.000Z,6.2553763440860415
2023-04-18T06:08:35.000Z,6.274828934506374
2023-04-18T06:09:37.000Z,6.28455522971654
2023-04-18T06:10:40.000Z,6.313734115347039
2023-04-18T06:11:43.000Z,6.313734115347039
2023-04-18T06:12:46.000Z,6.323460410557205
2023-04-18T06:13:53.000Z,6.226197458455543
2023-04-18T06:14:56.000Z,6.245650048875875
2023-04-18T06:15:59.000Z,6.265102639296208
2023-04-18T06:17:02.000Z,6.235923753665709
2023-04-18T06:18:04.000Z,6.226197458455543
2023-04-18T06:19:07.000Z,6.245650048875875
2023-04-18T06:20:10.000Z,6.235923753665709
2023-04-18T06:21:13.000Z,6.216471163245377
2023-04-18T06:22:15.000Z,6.197018572825044
2023-04-18T06:23:18.000Z,6.177565982404712
2023-04-18T06:24:21.000Z,6.167839687194546
2023-04-18T06:25:23.000Z,6.216471163245377
2023-04-18T06:26:26.000Z,6.2553763440860415
2023-04-18T06:27:29.000Z,6.265102639296208
2023-04-18T06:28:31.000Z,6.216471163245377
2023-04-18T06:29:34.000Z,6.235923753665709
2023-04-18T06:30:37.000Z,6.226197458455543
2023-04-18T06:31:44.000Z,6.28455522971654
2023-04-18T06:32:47.000Z,6.333186705767371
2023-04-18T06:33:50.000Z,6.323460410557205
2023-04-18T06:34:52.000Z,6.333186705767371
2023-04-18T06:35:55.000Z,6.226197458455543
2023-04-18T06:36:57.000Z,6.090029325513216
2023-04-18T06:38:00.000Z,6.226197458455543
2023-04-18T06:39:03.000Z,6.197018572825044
2023-04-18T06:40:05.000Z,6.138660801564047
2023-04-18T06:41:13.000Z,6.2553763440860415
2023-04-18T06:42:15.000Z,6.235923753665709
2023-04-18T06:43:18.000Z,6.08030303030305
2023-04-18T06:44:21.000Z,6.20674486803521
2023-04-18T06:45:23.000Z,6.197018572825044
2023-04-18T06:46:26.000Z,6.2553763440860415
2023-04-18T06:47:28.000Z,6.1192082111437145
2023-04-18T06:48:31.000Z,6.109481915933548
2023-04-18T06:49:33.000Z,6.1192082111437145
2023-04-18T06:50:36.000Z,6.109481915933548
2023-04-18T06:51:39.000Z,6.099755620723382
2023-04-18T06:52:42.000Z,6.099755620723382
2023-04-18T06:53:44.000Z,6.187292277614878
2023-04-18T06:54:47.000Z,6.128934506353881
2023-04-18T06:55:49.000Z,6.187292277614878
2023-04-18T06:56:52.000Z,6.226197458455543
2023-04-18T06:57:55.000Z,6.235923753665709
2023-04-18T06:58:57.000Z,6.167839687194546
2023-04-18T07:00:00.000Z,6.177565982404712
2023-04-18T07:01:04.000Z,6.060850439882717
2023-04-18T07:02:06.000Z,6.099755620723382
2023-04-18T07:03:09.000Z,6.1192082111437145
2023-04-18T07:04:12.000Z,6.099755620723382
2023-04-18T07:05:14.000Z,6.197018572825044
2023-04-18T07:06:17.000Z,6.08030303030305
2023-04-18T07:07:19.000Z,6.235923753665709
2023-04-18T07:08:22.000Z,6.226197458455543
2023-04-18T07:09:24.000Z,6.20674486803521
2023-04-18T07:10:27.000Z,6.274828934506374
2023-04-18T07:11:29.000Z,6.099755620723382
2023-04-18T07:12:32.000Z,6.167839687194546
2023-04-18T07:13:36.000Z,6.274828934506374
2023-04-18T07:14:38.000Z,6.323460410557205
2023-04-18T07:15:41.000Z,6.274828934506374
2023-04-18T07:16:44.000Z,6.265102639296208
2023-04-18T07:17:47.000Z,6.138660801564047
2023-04-18T07:18:49.000Z,6.3040078201368726
2023-04-18T07:19:52.000Z,6.3040078201368726
2023-04-18T07:20:55.000Z,6.333186705767371
2023-04-18T07:21:57.000Z,6.20674486803521
2023-04-18T07:23:00.000Z,6.099755620723382
2023-04-18T07:24:03.000Z,6.070576735092883
2023-04-18T07:25:05.000Z,6.099755620723382
2023-04-18T07:26:08.000Z,6.197018572825044
2023-04-18T07:27:10.000Z,6.20674486803521
2023-04-18T07:28:13.000Z,6.20674486803521
2023-04-18T07:29:16.000Z,6.216471163245377
2023-04-18T07:30:18.000Z,6.197018572825044
2023-04-18T07:31:21.000Z,6.20674486803521
2023-04-18T07:32:23.000Z,6.20674486803521
2023-04-18T07:33:26.000Z,6.216471163245377
2023-04-18T07:34:29.000Z,6.274828934506374
2023-04-18T07:35:31.000Z,6.245650048875875
2023-04-18T07:36:34.000Z,6.28455522971654
2023-04-18T07:37:37.000Z,6.2553763440860415
2023-04-18T07:38:39.000Z,6.265102639296208
2023-04-18T07:39:47.000Z,6.3040078201368726
2023-04-18T07:40:49.000Z,6.313734115347039
2023-04-18T07:41:52.000Z,6.3040078201368726
2023-04-18T07:42:55.000Z,6.313734115347039
2023-04-18T07:43:57.000Z,6.235923753665709
2023-04-18T07:45:00.000Z,6.226197458455543
2023-04-18T07:46:03.000Z,6.245650048875875
2023-04-18T07:47:05.000Z,6.28455522971654
2023-04-18T07:48:08.000Z,6.313734115347039
2023-04-18T07:49:11.000Z,6.313734115347039
2023-04-18T07:50:13.000Z,6.265102639296208
2023-04-18T07:51:16.000Z,6.235923753665709
2023-04-18T07:52:19.000Z,6.235923753665709
2023-04-18T07:53:22.000Z,6.20674486803521
2023-04-18T07:54:24.000Z,6.216471163245377
2023-04-18T07:55:27.000Z,6.128934506353881
2023-04-18T07:56:29.000Z,6.187292277614878
2023-04-18T07:57:32.000Z,6.274828934506374
2023-04-18T07:58:35.000Z,6.3040078201368726
2023-04-18T07:59:37.000Z,6.274828934506374
2023-04-18T08:00:40.000Z,6.28455522971654
2023-04-18T08:01:43.000Z,6.128934506353881
2023-04-18T08:02:45.000Z,6.313734115347039
2023-04-18T08:03:48.000Z,6.323460410557205
2023-04-18T08:04:50.000Z,6.352639296187704
2023-04-18T08:05:53.000Z,6.36236559139787
2023-04-18T08:06:56.000Z,6.323460410557205
2023-04-18T08:07:58.000Z,6.36236559139787
2023-04-18T08:09:01.000Z,6.235923753665709
2023-04-18T08:10:04.000Z,6.265102639296208
2023-04-18T08:11:06.000Z,6.245650048875875
2023-04-18T08:12:09.000Z,6.2553763440860415
2023-04-18T08:13:11.000Z,6.2553763440860415
2023-04-18T08:14:14.000Z,6.2553763440860415
2023-04-18T08:15:17.000Z,6.265102639296208
2023-04-18T08:16:19.000Z,6.2553763440860415
2023-04-18T08:17:22.000Z,6.2553763440860415
2023-04-18T08:18:25.000Z,6.1192082111437145
2023-04-18T08:19:27.000Z,6.245650048875875
2023-04-18T08:20:30.000Z,6.187292277614878
2023-04-18T08:21:32.000Z,6.197018572825044
2023-04-18T08:22:35.000Z,6.20674486803521
2023-04-18T08:23:38.000Z,6.060850439882717
2023-04-18T08:24:40.000Z,6.216471163245377
2023-04-18T08:25:43.000Z,6.20674486803521
2023-04-18T08:26:45.000Z,6.2553763440860415
2023-04-18T08:27:48.000Z,6.2553763440860415
2023-04-18T08:28:50.000Z,6.323460410557205
2023-04-18T08:29:53.000Z,6.245650048875875
2023-04-18T08:30:56.000Z,6.2553763440860415
2023-04-18T08:31:59.000Z,6.265102639296208
2023-04-18T08:33:01.000Z,6.3040078201368726
2023-04-18T08:34:04.000Z,6.28455522971654
2023-04-18T08:35:06.000Z,6.313734115347039
2023-04-18T08:36:09.000Z,6.294281524926706
2023-04-18T08:37:12.000Z,6.265102639296208
2023-04-18T08:38:14.000Z,6.294281524926706
2023-04-18T08:39:17.000Z,6.245650048875875
2023-04-18T08:40:19.000Z,6.265102639296208
2023-04-18T08:41:22.000Z,6.28455522971654
2023-04-18T08:42:25.000Z,6.265102639296208
2023-04-18T08:43:27.000Z,6.226197458455543
2023-04-18T08:44:30.000Z,6.28455522971654
2023-04-18T08:45:33.000Z,6.323460410557205
2023-04-18T08:46:35.000Z,6.333186705767371
2023-04-18T08:47:38.000Z,6.313734115347039
2023-04-18T08:48:40.000Z,6.3040078201368726
2023-04-18T08:49:43.000Z,6.323460410557205
2023-04-18T08:50:46.000Z,6.2553763440860415
2023-04-18T08:51:49.000Z,6.313734115347039
2023-04-18T08:52:51.000Z,6.28455522971654
2023-04-18T08:53:54.000Z,6.3040078201368726
2023-04-18T08:54:56.000Z,6.3040078201368726
2023-04-18T08:55:59.000Z,6.294281524926706
2023-04-18T08:57:02.000Z,6.28455522971654
2023-04-18T08:58:05.000Z,6.265102639296208
2023-04-18T08:59:08.000Z,6.2553763440860415
2023-04-18T09:00:10.000Z,6.2553763440860415
2023-04-18T09:01:13.000Z,6.245650048875875
2023-04-18T09:02:16.000Z,6.274828934506374
2023-04-18T09:03:18.000Z,6.294281524926706
2023-04-18T09:04:21.000Z,6.187292277614878
2023-04-18T09:05:24.000Z,6.128934506353881
2023-04-18T09:06:26.000Z,6.109481915933548
2023-04-18T09:07:29.000Z,5.9830400782013875
2023-04-18T09:08:31.000Z,6.235923753665709
2023-04-18T09:09:34.000Z,6.333186705767371
2023-04-18T09:10:37.000Z,6.313734115347039
2023-04-18T09:11:39.000Z,6.333186705767371
2023-04-18T09:12:42.000Z,6.167839687194546
2023-04-18T09:13:44.000Z,6.333186705767371
2023-04-18T09:14:47.000Z,6.3915444770283685
2023-04-18T09:15:50.000Z,6.36236559139787
2023-04-18T09:16:52.000Z,6.372091886608036
2023-04-18T09:17:55.000Z,6.36236559139787
2023-04-18T09:18:57.000Z,6.372091886608036
2023-04-18T09:20:00.000Z,6.3915444770283685
2023-04-18T09:21:03.000Z,6.28455522971654
2023-04-18T09:22:05.000Z,6.333186705767371
2023-04-18T09:23:08.000Z,6.265102639296208
2023-04-18T09:24:11.000Z,6.342913000977537
2023-04-18T09:25:14.000Z,6.313734115347039
2023-04-18T09:26:17.000Z,6.313734115347039
2023-04-18T09:27:19.000Z,6.3040078201368726
2023-04-18T09:28:22.000Z,6.3040078201368726
2023-04-18T09:29:25.000Z,6.342913000977537
2023-04-18T09:30:27.000Z,6.323460410557205
2023-04-18T09:31:30.000Z,6.3040078201368726
2023-04-18T09:32:33.000Z,6.36236559139787
2023-04-18T09:33:36.000Z,6.381818181818202
2023-04-18T09:34:38.000Z,6.226197458455543
2023-04-18T09:35:41.000Z,6.3915444770283685
2023-04-18T09:36:44.000Z,6.449902248289366
2023-04-18T09:37:46.000Z,6.401270772238535
2023-04-18T09:38:49.000Z,6.420723362658867
2023-04-18T09:39:51.000Z,6.420723362658867
2023-04-18T09:40:54.000Z,6.449902248289366
2023-04-18T09:41:57.000Z,6.469354838709698